Time;durP1;ratioP1;P1;durP2;ratioP2;P2;SDS_P1;SDS_P2;PMS_P1;PMS_P2;Temp;Humidity;BMP_temperature;BMP_pressure;BME280_temperature;BME280_humidity;BME280_pressure;Samples;Min_cycle;Max_cycle;Signal;HPM_P1;HPM_P2
2021/03/13 00:02:24;;;;;;;6.97;1.97;;;;;6.60;99670.00;;;;10512673;28;20275;-77
2021/03/13 00:07:26;;;;;;;7.60;2.43;;;;;6.60;99660.00;;;;10512392;28;20251;-77
2021/03/13 00:12:27;;;;;;;9.33;2.30;;;;;6.50;99641.00;;;;10531416;28;20616;-77
2021/03/13 00:17:29;;;;;;;8.57;2.83;;;;;6.50;99631.00;;;;10535812;28;20200;-76
2021/03/13 00:22:30;;;;;;;8.63;2.37;;;;;6.50;99626.00;;;;10539860;28;20205;-76
2021/03/13 00:27:32;;;;;;;8.63;2.70;;;;;6.50;99642.00;;;;10524597;28;20215;-76
2021/03/13 00:32:52;;;;;;;5.50;2.60;;;;;6.50;99612.00;;;;10556730;28;20207;-76
2021/03/13 00:37:54;;;;;;;9.77;2.13;;;;;6.50;99600.00;;;;10550615;28;20203;-76
2021/03/13 00:42:58;;;;;;;10.23;2.57;;;;;6.50;99590.00;;;;10501997;28;20212;-76
2021/03/13 00:48:02;;;;;;;10.77;2.67;;;;;6.50;99586.00;;;;10534437;28;20197;-76
2021/03/13 00:53:05;;;;;;;6.33;1.97;;;;;6.60;99562.00;;;;10496688;28;20193;-76
2021/03/13 00:58:06;;;;;;;10.87;3.50;;;;;6.60;99548.00;;;;10523738;28;20246;-76
2021/03/13 01:03:17;;;;;;;7.43;1.80;;;;;6.60;99541.00;;;;10515963;28;20219;-77
2021/03/13 01:08:20;;;;;;;7.33;2.13;;;;;6.60;99521.00;;;;10534220;28;20223;-76
2021/03/13 01:13:29;;;;;;;9.90;2.50;;;;;6.60;99509.00;;;;10517826;28;20215;-76
2021/03/13 01:18:33;;;;;;;7.73;1.83;;;;;6.70;99491.00;;;;10549854;28;20200;-77
2021/03/13 01:23:37;;;;;;;4.97;1.90;;;;;6.80;99485.00;;;;10510340;28;20208;-77
2021/03/13 01:28:39;;;;;;;9.50;2.50;;;;;6.70;99458.00;;;;10527827;28;20189;-77
2021/03/13 01:33:53;;;;;;;3.33;2.00;;;;;6.70;99443.00;;;;10474234;28;20258;-76
2021/03/13 01:38:55;;;;;;;6.23;2.07;;;;;6.60;99435.00;;;;10521998;28;20227;-76
2021/03/13 01:43:56;;;;;;;9.00;2.33;;;;;6.60;99427.00;;;;10505568;28;20659;-76
2021/03/13 01:49:02;;;;;;;3.20;1.60;;;;;6.60;99411.00;;;;10504632;28;20193;-76
2021/03/13 01:54:07;;;;;;;5.80;1.90;;;;;6.60;99396.00;;;;10521387;28;20276;-76
2021/03/13 01:59:10;;;;;;;11.13;2.40;;;;;6.60;99375.00;;;;10504721;28;20978;-76
2021/03/13 02:04:18;;;;;;;5.17;1.67;;;;;6.60;99363.00;;;;10521855;28;20216;-76
2021/03/13 02:09:29;;;;;;;8.40;1.33;;;;;6.70;99333.00;;;;10541634;28;20201;-76
2021/03/13 02:14:41;;;;;;;5.20;1.57;;;;;6.70;99311.00;;;;10504053;28;20239;-76
2021/03/13 02:19:53;;;;;;;10.17;2.10;;;;;6.80;99271.00;;;;10503993;28;20195;-76
2021/03/13 02:25:22;;;;;;;7.37;2.13;;;;;6.80;99269.00;;;;10503819;28;20278;-76
2021/03/13 02:30:25;;;;;;;7.37;1.80;;;;;6.90;99250.00;;;;10503910;28;20275;-76
2021/03/13 02:35:41;;;;;;;10.70;2.47;;;;;7.00;99240.00;;;;10505512;28;20235;-76
2021/03/13 02:40:47;;;;;;;5.77;1.90;;;;;6.90;99215.00;;;;10504580;28;20239;-76
2021/03/13 02:45:55;;;;;;;10.13;2.23;;;;;6.90;99197.00;;;;10462179;28;20209;-76
2021/03/13 02:50:58;;;;;;;7.37;2.00;;;;;6.90;99169.00;;;;10469564;28;20193;-75
2021/03/13 02:56:03;;;;;;;8.60;2.03;;;;;6.90;99161.00;;;;10503705;28;20197;-76
2021/03/13 03:01:08;;;;;;;8.27;2.33;;;;;6.90;99154.00;;;;10486713;28;20667;-76
2021/03/13 03:06:12;;;;;;;9.10;2.27;;;;;6.90;99142.00;;;;10536668;28;20233;-75
2021/03/13 03:11:23;;;;;;;8.10;2.03;;;;;6.90;99117.00;;;;10561526;28;20226;-76
2021/03/13 03:16:29;;;;;;;7.57;2.20;;;;;6.90;99083.00;;;;10562346;28;20187;-75
2021/03/13 03:21:35;;;;;;;6.13;2.07;;;;;6.90;99080.00;;;;10546064;28;20540;-75
2021/03/13 03:26:38;;;;;;;6.73;2.20;;;;;6.90;99048.00;;;;10561022;28;20192;-75
2021/03/13 03:31:40;;;;;;;8.73;2.47;;;;;6.90;99029.00;;;;10561913;28;20192;-75
2021/03/13 03:36:44;;;;;;;12.60;2.53;;;;;6.90;99024.00;;;;10534132;28;20210;-75
2021/03/13 03:41:50;;;;;;;6.57;1.93;;;;;7.00;99002.00;;;;10516170;28;20185;-75
2021/03/13 03:46:57;;;;;;;6.90;1.93;;;;;7.00;98986.00;;;;10526583;28;20254;-75
2021/03/13 03:52:01;;;;;;;6.33;1.57;;;;;7.10;98985.00;;;;10544677;28;20520;-75
2021/03/13 03:57:09;;;;;;;4.77;2.20;;;;;7.10;98972.00;;;;10492656;28;20193;-75
2021/03/13 04:02:12;;;;;;;3.70;1.37;;;;;7.10;98968.00;;;;10525938;28;20284;-75
2021/03/13 04:07:14;;;;;;;4.17;1.50;;;;;7.10;98949.00;;;;10525087;28;20208;-75
2021/03/13 04:12:18;;;;;;;5.17;1.50;;;;;7.10;98942.00;;;;10508719;28;20299;-75
2021/03/13 04:17:19;;;;;;;8.53;1.40;;;;;7.10;98914.00;;;;10525896;28;20189;-75
2021/03/13 04:22:23;;;;;;;5.90;1.83;;;;;7.10;98891.00;;;;10525630;28;20283;-75
2021/03/13 04:27:24;;;;;;;12.70;2.40;;;;;7.10;98903.00;;;;10508772;28;20315;-75
2021/03/13 04:32:26;;;;;;;11.53;2.00;;;;;7.20;98885.00;;;;10508511;28;20189;-75
2021/03/13 04:37:28;;;;;;;9.03;2.23;;;;;7.20;98855.00;;;;10508605;28;20588;-75
2021/03/13 04:42:30;;;;;;;10.17;2.90;;;;;7.20;98857.00;;;;10507085;28;20189;-75
2021/03/13 04:47:32;;;;;;;6.43;1.40;;;;;7.30;98841.00;;;;10490357;28;20723;-76
2021/03/13 04:52:34;;;;;;;8.50;2.03;;;;;7.30;98846.00;;;;10524340;28;20224;-76
2021/03/13 04:57:35;;;;;;;12.27;2.67;;;;;7.30;98813.00;;;;10523608;28;20216;-75
2021/03/13 05:02:37;;;;;;;11.00;2.00;;;;;7.40;98822.00;;;;10522760;28;20201;-75
2021/03/13 05:07:39;;;;;;;6.37;1.40;;;;;7.40;98823.00;;;;10522934;28;20200;-75
2021/03/13 05:12:40;;;;;;;5.47;1.57;;;;;7.50;98801.00;;;;10489698;28;20216;-75
2021/03/13 05:17:41;;;;;;;4.60;1.77;;;;;7.50;98805.00;;;;10523023;28;20635;-76
2021/03/13 05:22:50;;;;;;;6.43;2.23;;;;;7.40;98804.00;;;;10522450;28;20193;-75
2021/03/13 05:27:51;;;;;;;8.53;1.50;;;;;7.40;98805.00;;;;10522811;28;20189;-74
2021/03/13 05:32:52;;;;;;;13.97;2.10;;;;;7.30;98839.00;;;;10522801;28;20235;-75
2021/03/13 05:37:54;;;;;;;6.63;2.00;;;;;7.30;98866.00;;;;10472703;28;20197;-76
2021/03/13 05:42:59;;;;;;;7.07;2.13;;;;;7.20;98885.00;;;;10505738;28;20528;-75
2021/03/13 05:48:03;;;;;;;4.37;1.03;;;;;7.00;98883.00;;;;10506111;28;20200;-76
2021/03/13 05:53:10;;;;;;;3.47;0.90;;;;;6.70;98831.00;;;;10504762;28;20180;-76
2021/03/13 05:58:12;;;;;;;2.07;0.90;;;;;6.50;98860.00;;;;10521443;28;20192;-76
2021/03/13 06:03:14;;;;;;;1.23;0.60;;;;;6.40;98863.00;;;;10521029;28;20683;-75
2021/03/13 06:08:17;;;;;;;1.77;0.80;;;;;6.40;98865.00;;;;10505414;28;20594;-76
2021/03/13 06:13:19;;;;;;;2.53;0.70;;;;;6.30;98874.00;;;;10539103;28;20295;-76
2021/03/13 06:18:20;;;;;;;4.77;0.77;;;;;6.30;98872.00;;;;10487608;28;20193;-76
2021/03/13 06:23:21;;;;;;;2.20;0.60;;;;;6.30;98872.00;;;;10504628;28;20312;-76
2021/03/13 06:28:29;;;;;;;1.50;0.50;;;;;6.40;98867.00;;;;10520386;28;20215;-76
2021/03/13 06:33:32;;;;;;;2.23;1.00;;;;;6.40;98858.00;;;;10504159;28;20185;-76
2021/03/13 06:38:36;;;;;;;4.23;0.87;;;;;6.40;98872.00;;;;10504550;28;20193;-76
2021/03/13 06:43:39;;;;;;;2.20;0.70;;;;;6.40;98884.00;;;;10504588;28;20241;-76
2021/03/13 06:48:52;;;;;;;1.93;0.70;;;;;6.50;98883.00;;;;10520817;28;20189;-77
2021/03/13 06:54:02;;;;;;;2.50;0.93;;;;;6.60;98891.00;;;;10503379;28;20254;-76
2021/03/13 06:59:18;;;;;;;3.33;0.90;;;;;6.70;98884.00;;;;10486910;28;20896;-76
2021/03/13 07:04:34;;;;;;;2.00;0.97;;;;;6.90;98874.00;;;;10477325;28;20263;-76
2021/03/13 07:09:51;;;;;;;4.53;1.13;;;;;7.00;98905.00;;;;10531698;28;20195;-76
2021/03/13 07:15:18;;;;;;;4.70;1.27;;;;;7.00;98911.00;;;;10536250;28;20204;-76
2021/03/13 07:20:28;;;;;;;4.37;1.07;;;;;7.00;98893.00;;;;10569977;28;20202;-76
2021/03/13 07:25:30;;;;;;;3.43;1.00;;;;;7.10;98901.00;;;;10552300;28;20739;-76
2021/03/13 07:30:36;;;;;;;4.43;1.00;;;;;7.20;98886.00;;;;10552650;28;20176;-76
2021/03/13 07:35:48;;;;;;;6.60;1.30;;;;;7.30;98894.00;;;;10498858;28;20832;-76
2021/03/13 07:40:50;;;;;;;2.80;0.70;;;;;7.20;98891.00;;;;10498528;28;20194;-76
2021/03/13 07:45:53;;;;;;;5.13;1.10;;;;;7.20;98904.00;;;;10502021;28;20220;-76
2021/03/13 07:50:55;;;;;;;3.70;1.03;;;;;7.20;98921.00;;;;10484808;28;20285;-76
2021/03/13 07:55:58;;;;;;;2.57;0.80;;;;;7.10;98915.00;;;;10484661;28;20674;-76
2021/03/13 08:00:59;;;;;;;5.63;0.87;;;;;6.90;98937.00;;;;10501631;28;20241;-76
2021/03/13 08:06:04;;;;;;;6.80;1.30;;;;;7.20;98939.00;;;;10507398;28;20216;-76
2021/03/13 08:11:08;;;;;;;4.97;1.10;;;;;7.60;98933.00;;;;10542925;28;20680;-76
2021/03/13 08:16:18;;;;;;;6.50;1.43;;;;;7.80;98927.00;;;;10466920;28;20212;-77
2021/03/13 08:21:19;;;;;;;6.90;1.63;;;;;7.80;98945.00;;;;10483662;28;20225;-76
2021/03/13 08:26:42;;;;;;;7.10;1.77;;;;;9.30;98929.00;;;;10458542;28;20217;-76
2021/03/13 08:31:47;;;;;;;14.27;2.50;;;;;9.60;98922.00;;;;10491827;28;20212;-76
2021/03/13 08:36:50;;;;;;;13.90;2.53;;;;;10.20;98898.00;;;;10508191;28;20636;-76
2021/03/13 08:41:54;;;;;;;9.93;2.40;;;;;10.50;98913.00;;;;10525265;28;20193;-77
2021/03/13 08:47:05;;;;;;;12.73;3.10;;;;;10.40;98917.00;;;;10502085;28;20224;-77
2021/03/13 08:52:07;;;;;;;10.07;1.90;;;;;10.20;98909.00;;;;10513869;28;20224;-77
2021/03/13 08:57:17;;;;;;;12.80;3.13;;;;;10.00;98912.00;;;;10508513;28;20185;-76
2021/03/13 09:02:28;;;;;;;14.27;2.60;;;;;10.10;98911.00;;;;10508781;28;20204;-77
2021/03/13 09:07:30;;;;;;;19.73;2.90;;;;;10.90;98901.00;;;;10513350;28;20567;-77
2021/03/13 09:12:33;;;;;;;14.60;2.67;;;;;9.90;98939.00;;;;10509053;28;20258;-77
2021/03/13 09:17:35;;;;;;;17.73;2.80;;;;;8.60;98939.00;;;;10520399;28;20197;-77
2021/03/13 09:22:44;;;;;;;17.43;3.47;;;;;8.20;98936.00;;;;10492874;28;20246;-77
2021/03/13 09:27:46;;;;;;;12.73;3.03;;;;;8.50;98915.00;;;;10524107;28;20207;-77
2021/03/13 09:32:50;;;;;;;20.03;5.03;;;;;9.20;98925.00;;;;10476551;28;20188;-77
2021/03/13 09:37:53;;;;;;;18.57;3.40;;;;;10.00;98907.00;;;;10510313;28;20820;-77
2021/03/13 09:42:54;;;;;;;14.60;3.40;;;;;11.70;98910.00;;;;10526856;28;20212;-77
2021/03/13 09:48:03;;;;;;;14.87;3.63;;;;;11.90;98902.00;;;;10502852;28;20197;-77
2021/03/13 09:53:10;;;;;;;13.73;2.87;;;;;11.00;98912.00;;;;10485791;28;20219;-77
2021/03/13 09:58:16;;;;;;;14.20;3.00;;;;;10.30;98940.00;;;;10515918;28;20246;-77
2021/03/13 10:03:20;;;;;;;14.03;2.57;;;;;10.30;98930.00;;;;10485173;28;20213;-77
2021/03/13 10:08:31;;;;;;;7.50;3.37;;;;;11.40;98923.00;;;;10492000;28;20287;-77
2021/03/13 10:13:32;;;;;;;14.40;3.00;;;;;11.70;98934.00;;;;10520696;28;20205;-77
2021/03/13 10:18:38;;;;;;;11.87;2.37;;;;;12.20;98927.00;;;;10450651;28;20564;-77
2021/03/13 10:23:39;;;;;;;10.33;2.87;;;;;12.90;98906.00;;;;10490141;28;21920;-76
2021/03/13 10:28:45;;;;;;;15.10;2.90;;;;;12.90;98927.00;;;;10461592;28;20315;-77
2021/03/13 10:33:49;;;;;;;14.63;4.00;;;;;12.60;98924.00;;;;10505988;28;20193;-77
2021/03/13 10:38:52;;;;;;;11.13;2.93;;;;;13.30;98914.00;;;;10523993;28;20208;-76
2021/03/13 10:43:53;;;;;;;18.10;3.80;;;;;14.10;98888.00;;;;10512085;28;20209;-77
2021/03/13 10:48:58;;;;;;;13.27;3.27;;;;;13.20;98901.00;;;;10511154;28;20254;-77
2021/03/13 10:54:04;;;;;;;12.43;3.37;;;;;11.10;98934.00;;;;10508225;28;20192;-77
2021/03/13 10:59:05;;;;;;;14.77;2.73;;;;;10.00;98963.00;;;;10537822;28;20827;-77
2021/03/13 11:04:07;;;;;;;11.90;3.83;;;;;10.40;98944.00;;;;10509544;28;20273;-77
2021/03/13 11:09:11;;;;;;;15.13;3.53;;;;;11.40;98936.00;;;;10535572;28;20193;-77
2021/03/13 11:14:12;;;;;;;10.63;2.90;;;;;12.80;98939.00;;;;10489154;28;20899;-77
2021/03/13 11:19:14;;;;;;;13.60;2.90;;;;;12.40;98960.00;;;;10496747;28;20659;-76
2021/03/13 11:24:16;;;;;;;13.47;3.13;;;;;10.60;98976.00;;;;10546989;28;20280;-77
2021/03/13 11:29:18;;;;;;;13.73;2.90;;;;;10.40;98927.00;;;;10508399;28;20200;-76
2021/03/13 11:34:19;;;;;;;14.37;3.00;;;;;11.30;98956.00;;;;10529608;28;20177;-79
2021/03/13 11:39:20;;;;;;;14.93;3.40;;;;;13.00;98950.00;;;;10487672;28;20195;-76
2021/03/13 11:44:36;;;;;;;12.83;3.03;;;;;14.30;98930.00;;;;10484914;28;20217;-77
2021/03/13 11:49:37;;;;;;;10.77;2.67;;;;;14.30;98928.00;;;;10479346;28;20698;-77
2021/03/13 11:54:39;;;;;;;16.30;2.77;;;;;15.40;98936.00;;;;10542843;28;20185;-77
2021/03/13 11:59:41;;;;;;;10.30;2.33;;;;;12.70;98981.00;;;;10497711;28;20559;-77
2021/03/13 12:04:45;;;;;;;10.07;2.63;;;;;10.30;98968.00;;;;10481294;28;20220;-77
2021/03/13 12:09:47;;;;;;;11.23;2.60;;;;;9.80;98973.00;;;;10472697;28;20201;-76
2021/03/13 12:14:48;;;;;;;7.73;2.20;;;;;9.80;98987.00;;;;10519540;28;20209;-77
2021/03/13 12:19:51;;;;;;;8.20;2.00;;;;;9.20;98990.00;;;;10517110;28;20201;-77
2021/03/13 12:24:53;;;;;;;11.60;3.10;;;;;8.60;99055.00;;;;10488839;28;20201;-77
2021/03/13 12:29:56;;;;;;;8.47;2.13;;;;;7.50;99057.00;;;;10478263;28;20304;-78
2021/03/13 12:34:57;;;;;;;12.00;2.70;;;;;9.00;99015.00;;;;10503948;28;20196;-77
2021/03/13 12:39:59;;;;;;;6.87;1.90;;;;;9.80;99035.00;;;;10492305;28;20258;-77
2021/03/13 12:45:05;;;;;;;11.00;2.27;;;;;10.00;99038.00;;;;10507981;28;20236;-76
2021/03/13 12:50:07;;;;;;;9.83;2.43;;;;;9.40;99043.00;;;;10508267;28;20205;-77
2021/03/13 12:55:09;;;;;;;11.23;2.30;;;;;10.50;99024.00;;;;10541406;28;20185;-77
2021/03/13 13:00:11;;;;;;;9.60;2.43;;;;;11.40;99069.00;;;;10507757;28;20192;-77
2021/03/13 13:05:13;;;;;;;5.73;2.00;;;;;11.00;99055.00;;;;10507862;28;20783;-77
2021/03/13 13:10:18;;;;;;;6.97;1.87;;;;;11.10;99051.00;;;;10502217;28;20192;-78
2021/03/13 13:15:20;;;;;;;11.90;2.20;;;;;10.80;99042.00;;;;10474042;28;20205;-76
2021/03/13 13:20:21;;;;;;;12.13;2.30;;;;;11.10;99050.00;;;;10534556;28;20242;-76
2021/03/13 13:25:24;;;;;;;9.93;2.10;;;;;11.00;99054.00;;;;10527259;28;20213;-76
2021/03/13 13:30:25;;;;;;;7.27;2.10;;;;;11.00;99060.00;;;;10492663;28;20201;-76
2021/03/13 13:35:26;;;;;;;9.63;2.43;;;;;12.10;99055.00;;;;10521908;28;20989;-76
2021/03/13 13:40:28;;;;;;;11.37;2.83;;;;;12.40;99054.00;;;;10488492;28;20185;-76
2021/03/13 13:45:31;;;;;;;9.67;2.50;;;;;12.70;99066.00;;;;10446769;28;20660;-76
2021/03/13 13:50:33;;;;;;;9.20;2.20;;;;;13.50;99083.00;;;;10472674;28;20207;-77
2021/03/13 13:55:34;;;;;;;8.10;2.17;;;;;13.60;99078.00;;;;10539278;28;20636;-77
2021/03/13 14:00:36;;;;;;;8.17;2.10;;;;;13.10;99094.00;;;;10520360;28;20243;-76
2021/03/13 14:05:37;;;;;;;9.17;2.40;;;;;12.10;99092.00;;;;10510737;28;20570;-76
2021/03/13 14:10:39;;;;;;;13.67;2.70;;;;;12.40;99112.00;;;;10485926;28;20195;-77
2021/03/13 14:15:40;;;;;;;8.63;2.53;;;;;13.10;99108.00;;;;10520423;28;20193;-76
2021/03/13 14:20:42;;;;;;;8.67;2.20;;;;;11.70;99112.00;;;;10480711;28;20312;-76
2021/03/13 14:25:43;;;;;;;10.33;2.57;;;;;11.10;99138.00;;;;10452440;28;20216;-76
2021/03/13 14:30:45;;;;;;;6.83;2.00;;;;;11.00;99107.00;;;;10538767;28;20181;-76
2021/03/13 14:36:07;;;;;;;9.90;1.90;;;;;11.10;99127.00;;;;10312579;28;20203;-76
2021/03/13 14:41:39;;;;;;;6.73;2.03;;;;;11.60;99125.00;;;;9247715;28;21122;-76
2021/03/13 14:49:07;;;;;;;7.83;2.13;;;;;13.80;99106.00;;;;9217678;28;20299;-77
2021/03/13 14:54:27;;;;;;;10.17;2.50;;;;;14.60;99124.00;;;;9092147;28;20330;-77
2021/03/13 14:59:59;;;;;;;4.93;1.60;;;;;15.20;99123.00;;;;9271199;28;21078;-77
2021/03/13 15:07:31;;;;;;;8.53;2.20;;;;;14.60;99134.00;;;;9106326;28;20240;-77
2021/03/13 15:14:30;;;;;;;8.70;1.80;;;;;13.00;99155.00;;;;8915982;28;22035;-76
2021/03/13 15:27:32;;;;;;;7.17;1.97;;;;;17.80;99127.00;;;;8874908;28;22046;-76
2021/03/13 15:32:50;;;;;;;6.67;1.77;;;;;19.80;99107.00;;;;9100192;28;20925;-76
2021/03/13 15:37:56;;;;;;;10.70;2.50;;;;;19.00;99130.00;;;;8460560;28;21039;-76
2021/03/13 15:51:24;;;;;;;10.03;2.67;;;;;13.30;99193.00;;;;8352106;28;21116;-76
2021/03/13 15:56:44;;;;;;;10.13;2.03;;;;;11.80;99197.00;;;;9486678;28;20190;-76
2021/03/13 16:02:05;;;;;;;6.83;1.70;;;;;11.50;99188.00;;;;10530101;28;20200;-76
2021/03/13 16:07:07;;;;;;;8.17;1.90;;;;;11.20;99188.00;;;;10550824;28;20216;-77
2021/03/13 16:12:09;;;;;;;12.47;2.00;;;;;11.50;99187.00;;;;10548610;28;20691;-76
2021/03/13 16:17:11;;;;;;;11.10;2.20;;;;;11.10;99183.00;;;;10467306;28;20556;-77
2021/03/13 16:22:16;;;;;;;10.90;2.20;;;;;10.70;99187.00;;;;10492670;28;20860;-76
2021/03/13 16:27:18;;;;;;;13.33;2.80;;;;;10.60;99193.00;;;;10448504;28;20291;-76
2021/03/13 16:32:22;;;;;;;10.10;2.57;;;;;10.30;99195.00;;;;10493071;28;20217;-76
2021/03/13 16:37:36;;;;;;;5.83;1.97;;;;;10.10;99199.00;;;;10515988;28;20188;-77
2021/03/13 16:42:38;;;;;;;9.50;1.93;;;;;9.90;99206.00;;;;10526209;28;20196;-76
2021/03/13 16:47:40;;;;;;;7.10;2.40;;;;;9.70;99224.00;;;;10515228;28;20213;-76
2021/03/13 16:52:48;;;;;;;9.93;1.93;;;;;9.50;99224.00;;;;10486389;28;20196;-76
2021/03/13 16:57:55;;;;;;;8.80;1.50;;;;;9.50;99217.00;;;;10533792;28;20185;-77
2021/03/13 17:02:57;;;;;;;7.73;2.27;;;;;9.30;99216.00;;;;10541659;28;20218;-76
2021/03/13 17:08:02;;;;;;;10.83;2.40;;;;;9.10;99224.00;;;;10552375;28;20200;-76
2021/03/13 17:13:05;;;;;;;8.03;1.90;;;;;9.20;99226.00;;;;10509883;28;20213;-76
2021/03/13 17:18:08;;;;;;;9.10;2.37;;;;;9.00;99235.00;;;;10534345;28;20203;-76
2021/03/13 17:23:11;;;;;;;10.80;2.10;;;;;8.80;99248.00;;;;10532941;28;20200;-76
2021/03/13 17:28:13;;;;;;;13.67;3.13;;;;;8.60;99248.00;;;;10534584;28;20205;-76
2021/03/13 17:33:17;;;;;;;8.73;3.03;;;;;8.40;99262.00;;;;10503581;28;20196;-76
2021/03/13 17:38:19;;;;;;;15.93;2.53;;;;;8.20;99276.00;;;;10507460;28;20197;-76
2021/03/13 17:43:28;;;;;;;11.40;2.40;;;;;8.10;99293.00;;;;10502018;28;20315;-76
2021/03/13 17:48:30;;;;;;;11.30;2.40;;;;;8.10;99314.00;;;;10521995;28;20197;-77
2021/03/13 17:53:31;;;;;;;9.27;2.30;;;;;8.00;99314.00;;;;10500694;28;20189;-76
2021/03/13 17:58:34;;;;;;;8.73;2.13;;;;;8.00;99320.00;;;;10514940;28;20291;-76
2021/03/13 18:03:37;;;;;;;13.23;2.23;;;;;7.90;99324.00;;;;10535164;28;20249;-76
2021/03/13 18:08:41;;;;;;;12.37;2.67;;;;;7.80;99331.00;;;;10547392;28;20231;-76
2021/03/13 18:13:43;;;;;;;17.10;3.00;;;;;7.70;99351.00;;;;10520693;28;20228;-76
2021/03/13 18:18:51;;;;;;;18.77;2.93;;;;;7.70;99349.00;;;;10549524;28;20188;-77
2021/03/13 18:23:55;;;;;;;11.43;2.27;;;;;7.70;99361.00;;;;10547165;28;20637;-77
2021/03/13 18:29:12;;;;;;;10.90;2.53;;;;;7.70;99371.00;;;;10478336;28;20291;-77
2021/03/13 18:34:14;;;;;;;16.47;2.80;;;;;7.60;99373.00;;;;10550007;28;20192;-77
2021/03/13 18:39:18;;;;;;;11.80;2.47;;;;;7.50;99368.00;;;;10508672;28;20200;-78
2021/03/13 18:44:19;;;;;;;10.20;2.60;;;;;7.50;99368.00;;;;10503492;28;20261;-77
2021/03/13 18:49:31;;;;;;;13.50;2.93;;;;;7.40;99376.00;;;;10520443;28;20199;-77
2021/03/13 18:54:32;;;;;;;12.63;3.10;;;;;7.40;99387.00;;;;10502201;28;20189;-77
2021/03/13 18:59:49;;;;;;;15.20;2.53;;;;;7.20;99409.00;;;;10487309;28;20654;-77
2021/03/13 19:04:51;;;;;;;7.93;2.53;;;;;7.20;99423.00;;;;10504684;28;20220;-77
2021/03/13 19:09:54;;;;;;;15.40;3.23;;;;;7.20;99445.00;;;;10495285;28;20190;-77
2021/03/13 19:14:57;;;;;;;15.77;3.17;;;;;7.10;99461.00;;;;10529259;28;20236;-77
2021/03/13 19:19:59;;;;;;;15.67;2.67;;;;;7.10;99460.00;;;;10518855;28;20257;-78
2021/03/13 19:25:07;;;;;;;13.87;3.47;;;;;7.20;99466.00;;;;10540282;28;20208;-75
2021/03/13 19:30:26;;;;;;;12.50;2.53;;;;;7.20;99478.00;;;;10513529;28;20188;-77
2021/03/13 19:35:27;;;;;;;12.47;3.27;;;;;7.10;99478.00;;;;10544895;28;20203;-75
2021/03/13 19:40:29;;;;;;;11.57;2.90;;;;;7.10;99485.00;;;;10534004;28;20559;-77
2021/03/13 19:45:31;;;;;;;10.17;2.30;;;;;7.00;99499.00;;;;10511698;28;20310;-76
2021/03/13 19:50:33;;;;;;;10.13;2.33;;;;;6.90;99499.00;;;;10490512;28;20874;-76
2021/03/13 19:55:35;;;;;;;14.17;3.00;;;;;6.80;99496.00;;;;10493030;28;20234;-77
2021/03/13 20:00:36;;;;;;;13.53;3.10;;;;;6.70;99503.00;;;;10544928;28;20188;-77
2021/03/13 20:05:38;;;;;;;13.83;2.20;;;;;6.70;99511.00;;;;10522968;28;20614;-77
2021/03/13 20:10:40;;;;;;;13.63;2.63;;;;;6.70;99520.00;;;;10517978;28;20543;-77
2021/03/13 20:15:42;;;;;;;8.23;2.20;;;;;6.80;99518.00;;;;10509538;28;20697;-76
2021/03/13 20:20:44;;;;;;;14.50;2.87;;;;;6.80;99530.00;;;;10526734;28;20196;-76
2021/03/13 20:25:45;;;;;;;12.83;2.53;;;;;6.70;99528.00;;;;10535644;28;20208;-77
2021/03/13 20:30:47;;;;;;;12.10;3.40;;;;;6.70;99537.00;;;;10523859;28;20250;-77
2021/03/13 20:35:49;;;;;;;8.60;3.47;;;;;6.60;99551.00;;;;10514932;28;20200;-77
2021/03/13 20:40:50;;;;;;;8.20;1.70;;;;;6.60;99548.00;;;;10512686;28;20200;-76
2021/03/13 20:45:51;;;;;;;5.67;1.53;;;;;6.50;99565.00;;;;10507518;28;20227;-77
2021/03/13 20:50:53;;;;;;;6.00;1.70;;;;;6.50;99562.00;;;;10510822;28;20224;-77
2021/03/13 20:55:54;;;;;;;7.30;2.20;;;;;6.40;99572.00;;;;10513338;28;20860;-77
2021/03/13 21:00:56;;;;;;;4.13;1.40;;;;;6.40;99587.00;;;;10499048;28;20189;-77
2021/03/13 21:05:57;;;;;;;4.83;1.10;;;;;6.30;99591.00;;;;10523013;28;20320;-77
2021/03/13 21:10:59;;;;;;;4.00;0.90;;;;;6.30;99612.00;;;;10511943;28;20353;-77
2021/03/13 21:16:02;;;;;;;3.90;1.40;;;;;6.40;99624.00;;;;10499365;28;20192;-77
2021/03/13 21:21:03;;;;;;;3.77;1.70;;;;;6.40;99627.00;;;;10525517;28;20207;-77
2021/03/13 21:26:05;;;;;;;2.23;0.97;;;;;6.40;99639.00;;;;10530313;28;20201;-77
2021/03/13 21:31:06;;;;;;;5.13;0.90;;;;;6.40;99665.00;;;;10529547;28;20639;-77
2021/03/13 21:36:08;;;;;;;2.30;0.70;;;;;6.20;99679.00;;;;10545865;28;20201;-77
2021/03/13 21:41:09;;;;;;;2.77;1.37;;;;;4.60;99719.00;;;;10553700;28;20203;-77
2021/03/13 21:46:24;;;;;;;5.13;1.40;;;;;4.20;99737.00;;;;10476580;28;20207;-77
2021/03/13 21:51:45;;;;;;;4.40;1.30;;;;;4.10;99723.00;;;;10508588;28;20220;-77
2021/03/13 21:56:47;;;;;;;4.60;1.73;;;;;4.10;99728.00;;;;10462636;28;20193;-76
2021/03/13 22:01:48;;;;;;;6.40;3.13;;;;;4.10;99713.00;;;;10429663;28;20262;-76
2021/03/13 22:06:50;;;;;;;6.57;3.33;;;;;4.10;99706.00;;;;10462087;28;20213;-76
2021/03/13 22:11:52;;;;;;;5.87;3.27;;;;;4.20;99719.00;;;;10478994;28;20213;-77
2021/03/13 22:16:53;;;;;;;4.47;3.23;;;;;4.10;99727.00;;;;10462175;28;20193;-76
2021/03/13 22:21:55;;;;;;;4.30;2.23;;;;;4.10;99721.00;;;;10484006;28;20193;-76
2021/03/13 22:26:56;;;;;;;5.77;1.83;;;;;4.10;99729.00;;;;10520847;28;20207;-76
2021/03/13 22:31:57;;;;;;;6.03;1.83;;;;;4.10;99740.00;;;;10486899;28;20193;-76
2021/03/13 22:36:59;;;;;;;2.23;1.00;;;;;4.10;99738.00;;;;10514949;28;20197;-76
2021/03/13 22:42:02;;;;;;;2.97;1.00;;;;;4.20;99748.00;;;;10495159;28;20185;-76
2021/03/13 22:47:04;;;;;;;4.40;1.23;;;;;4.30;99758.00;;;;10512021;28;20223;-76
2021/03/13 22:52:07;;;;;;;9.00;1.10;;;;;4.40;99762.00;;;;10495309;28;20246;-77
2021/03/13 22:57:08;;;;;;;0.80;0.53;;;;;4.50;99784.00;;;;10512655;28;20639;-76
2021/03/13 23:02:09;;;;;;;5.20;1.00;;;;;4.60;99792.00;;;;10512046;28;20196;-77
2021/03/13 23:07:12;;;;;;;3.10;1.13;;;;;4.50;99797.00;;;;10525885;28;20204;-77
2021/03/13 23:12:13;;;;;;;3.17;0.83;;;;;4.50;99811.00;;;;10493957;28;20244;-76
2021/03/13 23:17:15;;;;;;;4.23;1.00;;;;;4.50;99819.00;;;;10510966;28;20200;-76
2021/03/13 23:22:19;;;;;;;2.37;0.80;;;;;4.60;99830.00;;;;10511241;28;20238;-76
2021/03/13 23:27:21;;;;;;;2.30;0.90;;;;;4.60;99830.00;;;;10528546;28;20204;-76
2021/03/13 23:32:22;;;;;;;3.37;0.90;;;;;4.50;99821.00;;;;10528143;28;20193;-75
2021/03/13 23:37:29;;;;;;;2.00;1.33;;;;;4.40;99830.00;;;;10493800;28;20204;-77
2021/03/13 23:42:30;;;;;;;3.97;1.13;;;;;4.20;99845.00;;;;10485772;28;20242;-77
2021/03/13 23:47:31;;;;;;;2.40;1.30;;;;;4.10;99854.00;;;;10469162;28;20567;-76
2021/03/13 23:52:33;;;;;;;3.10;1.30;;;;;4.10;99856.00;;;;10460425;28;20709;-75
2021/03/13 23:57:35;;;;;;;4.03;1.20;;;;;4.10;99875.00;;;;10526780;28;20192;-76
